Map

Track Data

SID SEASON NUMBER BASIN SUBBASIN NAME ISO_TIME NATURE LAT LON WMO_WIND WMO_PRES WMO_AGENCY TRACK_TYPE DIST2LAND LANDFALL IFLAG USA_AGENCY USA_ATCF_ID USA_LAT USA_LON USA_RECORD USA_STATUS USA_WIND USA_PRES USA_SSHS USA_R34_NE USA_R34_SE USA_R34_SW USA_R34_NW USA_R50_NE USA_R50_SE USA_R50_SW USA_R50_NW USA_R64_NE USA_R64_SE USA_R64_SW USA_R64_NW USA_POCI USA_ROCI USA_RMW USA_EYE TOKYO_LAT TOKYO_LON TOKYO_GRADE TOKYO_WIND TOKYO_PRES TOKYO_R50_DIR TOKYO_R50_LONG TOKYO_R50_SHORT TOKYO_R30_DIR TOKYO_R30_LONG TOKYO_R30_SHORT TOKYO_LAND CMA_LAT CMA_LON CMA_CAT CMA_WIND CMA_PRES HKO_LAT HKO_LON HKO_CAT HKO_WIND HKO_PRES NEWDELHI_LAT NEWDELHI_LON NEWDELHI_GRADE NEWDELHI_WIND NEWDELHI_PRES NEWDELHI_CI NEWDELHI_DP NEWDELHI_POCI REUNION_LAT REUNION_LON REUNION_TYPE REUNION_WIND REUNION_PRES REUNION_TNUM REUNION_CI REUNION_RMW REUNION_R34_NE REUNION_R34_SE REUNION_R34_SW REUNION_R34_NW REUNION_R50_NE REUNION_R50_SE REUNION_R50_SW REUNION_R50_NW REUNION_R64_NE REUNION_R64_SE REUNION_R64_SW REUNION_R64_NW BOM_LAT BOM_LON BOM_TYPE BOM_WIND BOM_PRES BOM_TNUM BOM_CI BOM_RMW BOM_R34_NE BOM_R34_SE BOM_R34_SW BOM_R34_NW BOM_R50_NE BOM_R50_SE BOM_R50_SW BOM_R50_NW BOM_R64_NE BOM_R64_SE BOM_R64_SW BOM_R64_NW BOM_ROCI BOM_POCI BOM_EYE BOM_POS_METHOD BOM_PRES_METHOD NADI_LAT NADI_LON NADI_CAT NADI_WIND NADI_PRES WELLINGTON_LAT WELLINGTON_LON WELLINGTON_WIND WELLINGTON_PRES DS824_LAT DS824_LON DS824_STAGE DS824_WIND DS824_PRES TD9636_LAT TD9636_LON TD9636_STAGE TD9636_WIND TD9636_PRES TD9635_LAT TD9635_LON TD9635_WIND TD9635_PRES TD9635_ROCI NEUMANN_LAT NEUMANN_LON NEUMANN_CLASS NEUMANN_WIND NEUMANN_PRES MLC_LAT MLC_LON MLC_CLASS MLC_WIND MLC_PRES USA_GUST BOM_GUST BOM_GUST_PER REUNION_GUST REUNION_GUST_PER USA_SEAHGT USA_SEARAD_NE USA_SEARAD_SE USA_SEARAD_SW USA_SEARAD_NW STORM_SPEED STORM_DIR
1959317N09137 1959 103 WP MM FREDA 1959-11-13 00:00:00 TS 8.65000 137.417 998 tokyo main 1072 1068 OOO______OOO__ jtwc_wp WP211959 9.10000 137.500 60 0 7.80000 137.300 9 998 0 0 0 7.70000 137.200 3 48 998 9.10000 137.500 TC 60 9.10000 137.500 2 60 9.10000 137.500 60 996 240 15 297
1959317N09137 1959 103 WP MM FREDA 1959-11-13 03:00:00 TS 8.97939 136.751 main 1095 1059 PPP______PPP__ WP211959 9.25766 136.818 60 0 8.44757 136.680 9 998 0 0 8.40755 136.635 3 48 998 9.25766 136.818 TC 60 9.24827 136.738 2 60 9.25766 136.818 60 997 270 15 294
1959317N09137 1959 103 WP MM FREDA 1959-11-13 06:00:00 TS 9.26443 136.048 998 tokyo main 1050 978 OOO______OPO__ jtwc_wp WP211959 9.40000 136.100 60 0 9.00000 136.000 9 998 0 0 0 9.00000 136.000 3 48 998 9.40000 136.100 TC 60 9.38656 135.991 2 60 9.40000 136.100 60 998 300 15 289
1959317N09137 1959 103 WP MM FREDA 1959-11-13 09:00:00 TS 9.47070 135.295 main 978 905 PPP______PPP__ WP211959 9.51502 135.335 60 0 9.38259 135.235 9 995 0 0 9.39005 135.257 3 53 995 9.51502 135.335 TC 60 9.50652 135.273 2 60 9.51502 135.335 60 996 330 15 283
1959317N09137 1959 103 WP MM FREDA 1959-11-13 12:00:00 TS 9.60000 134.567 992 tokyo main 905 844 OOO______OOO__ jtwc_wp WP211959 9.60000 134.600 60 0 9.60000 134.500 9 992 0 0 0 9.60000 134.500 3 58 993 9.60000 134.600 TC 60 9.60000 134.600 2 60 9.60000 134.600 60 994 360 14 278
1959317N09137 1959 103 WP MM FREDA 1959-11-13 15:00:00 TS 9.66827 133.931 main 833 780 PPP______PPP__ WP211959 9.65734 133.962 60 0 9.68728 133.912 9 991 0 0 9.68744 133.805 3 63 991 9.65734 133.962 TC 60 9.66289 133.983 2 60 9.65734 133.962 60 991 360 12 275
1959317N09137 1959 103 WP MM FREDA 1959-11-13 18:00:00 TS 9.70114 133.370 990 tokyo main 780 728 OOO______OPO__ jtwc_wp WP211959 9.70000 133.400 60 0 9.70000 133.400 9 990 0 0 0 9.70000 133.200 4 68 990 9.70000 133.400 TC 60 9.70685 133.417 2 60 9.70000 133.400 60 989 360 11 274
1959317N09137 1959 103 WP MM FREDA 1959-11-13 21:00:00 TS 9.74571 132.856 main 728 679 PPP______PPP__ WP211959 9.74239 132.877 60 0 9.74989 132.892 9 990 0 0 9.74980 132.720 4 68 988 9.74239 132.877 TC 60 9.74741 132.893 2 60 9.74239 132.877 60 987 360 10 276
1959317N09137 1959 103 WP MM FREDA 1959-11-14 00:00:00 TS 9.80000 132.383 990 tokyo main 679 627 OOO______OOO__ jtwc_wp WP211959 9.80000 132.400 60 0 9.80000 132.400 9 990 0 0 0 9.80000 132.300 4 68 987 9.80000 132.400 TC 60 9.80000 132.400 2 60 9.80000 132.400 60 985 360 9 278
1959317N09137 1959 103 WP MM FREDA 1959-11-14 03:00:00 TS 9.87185 131.915 main 627 584 PPP______PPP__ WP211959 9.89241 131.943 60 0 9.84246 131.892 9 987 0 0 9.84247 131.842 4 72 984 9.89241 131.943 TC 60 9.86895 131.925 2 62 9.89241 131.943 60 983 360 9 280
1959317N09137 1959 103 WP MM FREDA 1959-11-14 06:00:00 TS 9.95907 131.463 985 tokyo main 586 543 OOO______OPO__ jtwc_wp WP211959 10.0000 131.500 60 0 9.90000 131.400 9 985 0 0 0 9.90000 131.400 4 77 981 10.0000 131.500 TC 60 9.95444 131.477 2 65 10.0000 131.500 60 982 360 9 281
1959317N09137 1959 103 WP MM FREDA 1959-11-14 09:00:00 TS 10.0428 131.032 main 533 493 PPP______PPP__ WP211959 10.0849 131.057 65 1 9.96981 130.965 9 982 0 0 9.96983 131.015 4 77 979 10.0849 131.057 TC 65 10.0627 131.041 2 67 10.0849 131.057 65 980 330 9 283
1959317N09137 1959 103 WP MM FREDA 1959-11-14 12:00:00 TS 10.1667 130.583 980 tokyo main 495 445 OOO______OOO__ jtwc_wp WP211959 10.2000 130.600 70 1 10.1000 130.500 9 980 0 0 0 10.1000 130.600 4 77 977 10.2000 130.600 TC 70 10.2000 130.600 3 70 10.2000 130.600 70 978 300 10 288
1959317N09137 1959 103 WP MM FREDA 1959-11-14 15:00:00 TS 10.3565 130.071 main 448 404 PPP______PPP__ WP211959 10.3850 130.100 70 1 10.3126 129.908 9 980 0 0 10.3125 130.080 4 82 975 10.3850 130.100 TC 70 10.3589 130.136 3 72 10.3850 130.100 71 976 330 11 293
1959317N09137 1959 103 WP MM FREDA 1959-11-14 18:00:00 TS 10.5912 129.544 980 tokyo main 394 361 OOO______OPO__ jtwc_wp WP211959 10.6000 129.600 70 1 10.6000 129.300 9 980 0 0 0 10.6000 129.500 5 87 974 10.6000 129.600 TC 70 10.5472 129.665 3 74 10.6000 129.600 72 975 360 11 296
1959317N09137 1959 103 WP MM FREDA 1959-11-14 21:00:00 TS 10.8386 129.048 main 350 306 PPP______PPP__ WP211959 10.7849 129.150 75 1 10.9574 128.778 9 977 0 0 10.9576 128.878 5 92 973 10.7849 129.150 TC 75 10.7620 129.186 3 76 10.7849 129.150 75 976 390 11 298
1959317N09137 1959 103 WP MM FREDA 1959-11-15 00:00:00 TS 11.1000 128.567 975 tokyo main 306 253 OOO______OOO__ jtwc_wp WP211959 11.0000 128.700 80 1 11.3000 128.300 9 975 0 0 0 11.3000 128.300 5 97 973 11.0000 128.700 TC 80 11.0000 128.700 4 78 11.0000 128.700 78 977 420 11 299
1959317N09137 1959 103 WP MM FREDA 1959-11-15 03:00:00 TS 11.3606 128.088 main 255 207 PPP______PPP__ WP211959 11.2925 128.208 80 1 11.5225 127.827 9 972 0 0 11.5148 127.877 5 97 971 11.2925 128.208 TC 80 11.2492 128.203 4 79 11.2925 128.208 80 973 390 11 299
1959317N09137 1959 103 WP MM FREDA 1959-11-15 06:00:00 TS 11.6200 127.617 970 tokyo main 207 177 OOO______OPO__ jtwc_wp WP211959 11.6000 127.700 80 1 11.7000 127.400 9 970 0 0 0 11.7000 127.500 5 97 969 11.6000 127.700 TC 80 11.5198 127.700 4 81 11.6000 127.700 82 970 360 11 298
1959317N09137 1959 103 WP MM FREDA 1959-11-15 09:00:00 TS 11.8600 127.146 main 172 131 PPP______PPP__ WP211959 11.8499 127.192 82 1 11.8699 127.042 9 965 0 0 11.9350 127.057 5 111 959 11.8499 127.192 TC 82 11.8055 127.197 4 83 11.8499 127.192 83 965 330 10 299
1959317N09137 1959 103 WP MM FREDA 1959-11-15 12:00:00 TS 12.1167 126.683 960 tokyo main 131 89 OOO______OOO__ jtwc_wp WP211959 12.1000 126.700 85 2 12.1000 126.700 9 960 0 0 0 12.2000 126.600 6 126 950 12.1000 126.700 TC 85 12.1000 126.700 4 85 12.1000 126.700 85 960 300 11 303
1959317N09137 1959 103 WP MM FREDA 1959-11-15 15:00:00 TS 12.4238 126.241 main 79 62 PPP______PPP__ WP211959 12.3924 126.250 87 2 12.4924 126.330 9 955 0 0 12.4849 126.150 6 126 945 12.3924 126.250 TC 87 12.3885 126.213 4 87 12.3924 126.250 87 954 300 11 306
1959317N09137 1959 103 WP MM FREDA 1959-11-15 18:00:00 TS 12.7474 125.789 950 tokyo main 63 55 OOO______OPO__ jtwc_wp WP211959 12.7000 125.800 90 2 12.9000 125.900 9 950 0 0 0 12.8000 125.700 6 126 940 12.7000 125.800 TC 90 12.6847 125.735 4 90 12.7000 125.800 90 949 300 11 304
1959317N09137 1959 103 WP MM FREDA 1959-11-15 21:00:00 TS 13.0531 125.296 main 68 62 PPP______PPP__ WP211959 13.0000 125.300 92 2 13.1651 125.365 9 947 0 0 13.1649 125.250 6 126 942 13.0000 125.300 TC 92 12.9885 125.263 4 92 13.0000 125.300 92 944 330 11 302
1959317N09137 1959 103 WP MM FREDA 1959-11-16 00:00:00 TS 13.3500 124.800 945 tokyo main 54 10 OOO______OOO__ jtwc_wp WP211959 13.3000 124.800 95 2 13.4000 124.800 9 945 0 0 0 13.5000 124.800 6 126 945 13.3000 124.800 TC 95 13.3000 124.800 4 95 13.3000 124.800 95 940 360 11 302
1959317N09137 1959 103 WP MM FREDA 1959-11-16 03:00:00 TS 13.6297 124.331 main 0 0 PPP______PPP__ WP211959 13.5924 124.342 95 2 13.6999 124.285 9 945 0 0 13.6999 124.350 6 126 946 13.5924 124.342 TC 95 13.6015 124.322 4 100 13.5924 124.342 95 942 360 11 302
1959317N09137 1959 103 WP MM FREDA 1959-11-16 06:00:00 TS 13.9187 123.876 945 tokyo main 15 10 OOO______OPO__ jtwc_wp WP211959 13.9000 123.900 95 2 14.0000 123.800 9 945 0 0 0 13.9000 123.900 6 126 948 13.9000 123.900 TC 95 13.9125 123.855 4 105 13.9000 123.900 95 945 360 11 304
1959317N09137 1959 103 WP MM FREDA 1959-11-16 09:00:00 TS 14.2299 123.412 main 24 24 PPP______PPP__ WP211959 14.2350 123.435 105 3 14.2200 123.320 9 947 0 0 14.2125 123.435 6 121 950 14.2350 123.435 TC 105 14.2422 123.410 4 110 14.2350 123.435 105 950 330 11 308
1959317N09137 1959 103 WP MM FREDA 1959-11-16 12:00:00 TS 14.5833 122.983 950 tokyo main 46 44 OOO______OOO__ jtwc_wp WP211959 14.6000 123.000 115 4 14.5000 122.900 9 950 0 0 0 14.6000 123.000 6 116 952 14.6000 123.000 TC 115 14.6000 123.000 4 115 14.6000 123.000 115 956 300 11 315
1959317N09137 1959 103 WP MM FREDA 1959-11-16 15:00:00 TS 14.9912 122.613 main 89 74 PPP______PPP__ WP211959 14.9849 122.627 110 3 14.9699 122.563 9 955 0 0 15.0350 122.613 6 111 955 14.9849 122.627 TC 110 14.9879 122.623 4 110 14.9849 122.627 110 959 300 11 322
1959317N09137 1959 103 WP MM FREDA 1959-11-16 18:00:00 TS 15.4341 122.297 960 tokyo main 74 22 OOO______OPO__ jtwc_wp WP211959 15.4000 122.300 105 3 15.5000 122.300 9 960 0 0 0 15.5000 122.300 6 106 959 15.4000 122.300 TC 105 15.4047 122.282 4 105 15.4000 122.300 105 963 300 11 326
1959317N09137 1959 103 WP MM FREDA 1959-11-16 21:00:00 TS 15.8736 122.003 main 11 0 PPP______PPP__ WP211959 15.8425 121.977 100 3 15.9425 122.062 9 965 0 0 15.9275 122.047 6 101 963 15.8425 121.977 TC 100 15.8442 121.976 4 100 15.8425 121.977 100 966 330 10 330
1959317N09137 1959 103 WP MM FREDA 1959-11-17 00:00:00 TS 16.3333 121.767 970 tokyo main 0 0 OOO______OOO__ jtwc_wp WP211959 16.3000 121.700 95 2 16.4000 121.900 9 970 0 0 0 16.4000 121.900 5 97 968 16.3000 121.700 TC 95 16.3000 121.700 4 95 16.3000 121.700 95 970 360 10 338
1959317N09137 1959 103 WP MM FREDA 1959-11-17 03:00:00 TS 16.8158 121.611 main 0 0 PPP______PPP__ WP211959 16.7424 121.492 92 2 16.9274 121.850 9 977 0 0 16.9999 121.914 5 92 971 16.7424 121.492 TC 92 16.7402 121.426 4 90 16.7424 121.492 92 973 360 10 344
1959317N09137 1959 103 WP MM FREDA 1959-11-17 06:00:00 TS 17.3162 121.464 985 tokyo main 0 0 OOO______OPO__ jtwc_wp WP211959 17.2000 121.300 90 2 17.5000 121.800 9 985 0 0 0 17.6000 121.900 5 87 975 17.2000 121.300 TC 90 17.1974 121.182 4 85 17.2000 121.300 90 977 360 11 340
1959317N09137 1959 103 WP MM FREDA 1959-11-17 09:00:00 TS 17.8193 121.237 main 0 0 PPP______PPP__ WP211959 17.6776 121.043 82 1 18.1224 121.660 9 987 0 0 18.0800 121.660 5 82 978 17.6776 121.043 TC 82 17.6809 120.973 4 80 17.6776 121.043 82 980 330 11 336
1959317N09137 1959 103 WP MM FREDA 1959-11-17 12:00:00 TS 18.3333 120.983 990 tokyo main 0 0 OOO______OOO__ jtwc_wp WP211959 18.2000 120.800 75 1 18.7000 121.400 9 990 0 0 0 18.5000 121.300 4 77 981 18.2000 120.800 TC 75 18.2000 120.800 4 75 18.2000 120.800 75 984 300 12 334
1959317N09137 1959 103 WP MM FREDA 1959-11-17 15:00:00 TS 18.8564 120.709 main 35 35 PPP______PPP__ WP211959 18.7850 120.620 67 1 19.1229 120.928 9 990 0 0 18.8927 120.863 4 72 984 18.7850 120.620 TC 67 18.7679 120.604 4 71 18.7850 120.620 67 987 300 12 336
1959317N09137 1959 103 WP MM FREDA 1959-11-17 18:00:00 TS 19.3949 120.492 990 tokyo main 94 94 OOO______OPO__ jtwc_wp WP211959 19.4000 120.500 60 0 19.5000 120.500 9 990 0 0 0 19.3000 120.500 4 68 988 19.4000 120.500 TC 60 19.3697 120.452 4 67 19.4000 120.500 60 991 300 11 344
1959317N09137 1959 103 WP MM FREDA 1959-11-17 21:00:00 TS 19.9460 120.385 main 151 151 PPP______PPP__ WP211959 20.0000 120.405 60 0 19.9273 120.352 9 990 0 0 19.7623 120.367 4 63 989 20.0000 120.405 TC 60 19.9866 120.373 4 63 20.0000 120.405 60 991 270 11 355
1959317N09137 1959 103 WP MM FREDA 1959-11-18 00:00:00 TS 20.5167 120.400 990 tokyo main 159 91 OOO______OOO__ jtwc_wp WP211959 20.6000 120.400 60 0 20.4000 120.400 9 990 0 0 0 20.3000 120.400 3 58 991 20.6000 120.400 TC 60 20.6000 120.400 2 60 20.6000 120.400 60 992 240 12 5
1959317N09137 1959 103 WP MM FREDA 1959-11-18 03:00:00 TS 21.1123 120.495 main 91 22 PPP______PPP__ WP211959 21.2074 120.483 60 0 20.9274 120.533 9 990 0 0 20.9349 120.490 3 58 991 21.2074 120.483 TC 60 21.1893 120.499 2 60 21.2074 120.483 60 991 240 12 14
1959317N09137 1959 103 WP MM FREDA 1959-11-18 06:00:00 TS 21.7118 120.719 990 tokyo main 22 0 OOO______OPO__ jtwc_wp WP211959 21.8000 120.700 60 0 21.5000 120.800 9 990 0 0 0 21.6000 120.700 3 58 992 21.8000 120.700 TC 60 21.7709 120.711 2 60 21.8000 120.700 60 991 240 13 24
1959317N09137 1959 103 WP MM FREDA 1959-11-18 09:00:00 TS 22.2869 121.052 main 20 20 PPP______PPP__ WP211959 22.3574 121.040 60 0 22.1000 121.162 9 990 0 0 22.2073 120.983 3 58 992 22.3574 121.040 TC 60 22.3420 121.043 2 60 22.3574 121.040 60 992 240 14 32
1959317N09137 1959 103 WP MM FREDA 1959-11-18 12:00:00 TS 22.8500 121.500 990 tokyo main 23 23 OOO______OOO__ jtwc_wp WP211959 22.9000 121.500 60 0 22.7000 121.600 9 990 0 0 0 22.8000 121.400 3 58 993 22.9000 121.500 TC 60 22.9000 121.500 2 60 22.9000 121.500 60 993 240 14 37
1959317N09137 1959 103 WP MM FREDA 1959-11-18 15:00:00 TS 23.4093 121.972 main 60 55 PPP______PPP__ WP211959 23.4570 121.983 60 0 23.2419 121.991 9 991 0 0 23.3998 121.933 3 58 993 23.4570 121.983 TC 60 23.4434 121.955 2 57 23.4570 121.983 60 994 240 15 42
1959317N09137 1959 103 WP MM FREDA 1959-11-18 18:00:00 TS 23.9621 122.574 992 tokyo main 90 90 OOO______OPO__ jtwc_wp WP211959 24.0000 122.600 60 0 23.8000 122.500 9 992 0 0 0 24.0000 122.600 3 58 994 24.0000 122.600 TC 60 23.9727 122.546 2 55 24.0000 122.600 60 995 240 17 48
1959317N09137 1959 103 WP MM FREDA 1959-11-18 21:00:00 TS 24.5123 123.313 main 141 141 PPP______PPP__ WP211959 24.5143 123.361 55 0 24.4345 123.203 9 992 0 0 24.6057 123.282 3 53 994 24.5143 123.361 TC 55 24.4909 123.313 2 52 24.5143 123.361 55 994 240 19 54
1959317N09137 1959 103 WP MM FREDA 1959-11-19 00:00:00 TS 25.0500 124.250 992 tokyo main 231 231 OOO______OOO__ jtwc_wp WP211959 25.0000 124.300 50 0 25.1000 124.100 9 992 0 0 0 25.2000 124.200 3 48 994 25.0000 124.300 TC 50 25.0000 124.300 2 50 25.0000 124.300 50 993 240 21 60
1959317N09137 1959 103 WP MM FREDA 1959-11-19 03:00:00 TS 25.5617 125.322 main 338 338 PPP______PPP__ WP211959 25.4473 125.310 50 0 25.7844 125.044 9 994 0 0 25.7654 125.495 3 48 995 25.4473 125.310 TC 50 25.4782 125.461 2 50 25.4473 125.310 50 993 210 24 65
1959317N09137 1959 103 WP MM FREDA 1959-11-19 06:00:00 MX 26.0572 126.658 996 tokyo main 486 486 OOO______OPO__ jtwc_wp WP211959 25.9000 126.600 50 0 26.4000 126.300 9 996 0 0 0 26.3000 127.000 9 48 997 25.9000 126.600 TC 50 25.9435 126.848 2 50 25.9000 126.600 50 994 180 28 70
1959317N09137 1959 103 WP MM FREDA 1959-11-19 09:00:00 MX 26.5334 128.280 main 553 451 PPP______PPP__ WP211959 26.3851 128.281 50 0 26.8380 128.017 9 996 0 0 26.7951 128.384 9 48 997 26.3851 128.281 TC 50 26.4119 128.436 2 50 26.3851 128.281 50 994 150 33 73
1959317N09137 1959 103 WP MM FREDA 1959-11-19 12:00:00 MX 27.0167 130.133 996 tokyo main 450 407 OOO______OOO__ jtwc_wp WP211959 26.9000 130.200 50 0 27.2000 130.000 6 996 0 0 0 27.3000 130.000 9 48 998 26.9000 130.200 TC 50 26.9000 130.200 2 50 26.9000 130.200 50 995 120 35 74
1959317N09137 1959 103 WP MM FREDA 1959-11-19 15:00:00 MX 27.5335 132.080 main 413 406 PPP______PPP__ WP211959 27.4466 132.092 50 0 27.5681 131.981 6 996 0 0 27.8742 132.109 9 43 999 27.4466 132.092 TC 50 27.4188 132.118 2 48 27.4466 132.092 50 995 150 37 74
1959317N09137 1959 103 WP MM FREDA 1959-11-19 18:00:00 MX 28.0665 134.145 996 tokyo main 450 450 OOO______OPO__ jtwc_wp WP211959 28.0000 134.100 50 0 28.0000 134.000 6 996 0 0 0 28.4000 134.400 9 38 1000 28.0000 134.100 TC 50 27.9545 134.164 2 47 28.0000 134.100 50 996 180 38 74
1959317N09137 1959 103 WP MM FREDA 1959-11-19 21:00:00 MX 28.5745 136.259 main 537 527 PPP______PPP__ WP211959 28.5071 136.294 47 0 28.5936 135.925 6 996 0 0 28.7603 136.504 9 38 1001 28.5071 136.294 TC 47 28.4877 136.304 2 46 28.5205 136.253 47 996 210 39 75
1959317N09137 1959 103 WP MM FREDA 1959-11-20 00:00:00 MX 29.0667 138.411 996 tokyo main 539 539 OOO______OOO__ jtwc_wp WP211959 29.0000 138.500 45 0 29.2000 138.000 6 996 0 0 0 29.1000 138.600 9 38 1002 29.0000 138.500 TC 45 29.0000 138.500 2 45 29.0000 138.500 45 997 240 38 75
1959317N09137 1959 103 WP MM FREDA 1959-11-20 03:00:00 MX 29.5644 140.464 main 580 580 PPP______P____ WP211959 29.4900 140.422 42 0 29.6846 140.350 6 997 0 0 29.5929 140.663 9 33 1002 29.4900 140.422 TC 42 2 39 76
1959317N09137 1959 103 WP MM FREDA 1959-11-20 06:00:00 MX 30.0000 142.733 998 tokyo main 606 606 OOO______O____ jtwc_wp WP211959 30.0000 142.500 40 0 30.0000 143.000 6 998 0 0 0 30.0000 143.000 9 29 1002 30.0000 142.500 TC 40 2 44 79
1959317N09137 1959 103 WP MM FREDA 1959-11-20 09:00:00 MX 30.3797 145.432 main 709 709 PPP______P____ WP211959 30.6051 145.019 37 0 30.0856 145.927 6 1000 0 0 30.0759 146.012 9 29 1002 30.6051 145.019 TC 37 2 49 83
1959317N09137 1959 103 WP MM FREDA 1959-11-20 12:00:00 MX 30.6154 148.385 1002 tokyo main 898 898 OOO______O____ jtwc_wp WP211959 31.0000 148.000 35 0 30.0000 149.000 6 1002 0 0 0 30.0000 149.000 9 29 1002 31.0000 148.000 TC 35 52 88
1959317N09137 1959 103 WP MM FREDA 1959-11-20 15:00:00 MX 30.5775 151.447 main 1128 1128 P_P______P____ WP211959 30.8722 151.548 32 -1 6 0 0 29.9880 151.247 9 29 1003 30.8722 151.548 TC 32 52 93
1959317N09137 1959 103 WP MM FREDA 1959-11-20 18:00:00 MX 30.3333 154.433 main 1391 1391 O_O______O____ jtwc_wp WP211959 30.5000 155.000 30 -1 30.0000 153.300 9 29 1004 30.5000 155.000 TC 30 48 95
1959317N09137 1959 103 WP MM FREDA 1959-11-20 21:00:00 MX 30.1441 157.010 main 1622 1622 P_P______P____ WP211959 30.2094 157.731 27 -1 30.0135 155.568 9 1006 30.2094 157.731 TC 27 42 94
1959317N09137 1959 103 WP MM FREDA 1959-11-21 00:00:00 MX 30.0000 159.333 main 1826 O_O______O____ jtwc_wp WP211959 30.0000 160.000 25 -1 30.0000 158.000 9 1008 30.0000 160.000 TC 25 40 94

Digital Typhoon Data and Search

About IBTrACS Database

This database is a web-friendly format of International Best Track Archive for Climate Stewardship (IBTrACS), a global best track data archive curated by NOAA dating back to 1842.

Updated: 2021-11-26